Zarling — WDD7883 — position and weather

sailwx.info

Track history (hours):
 
Tides and Currents Weather Stations Pressure Air Temp Water Temp Dewpoint Dewpoint Depression Visibility Wind Speed Wind Dir Waves Ship Positions

Zarling

Owner: Clean Rivers Co-op, Portland, OR. More information available from US FCC via Universal Licensing System.

Last reported at 2015-May-04 00:33 UTC. Time now 2015-May-04 00:58 UTC.
Position N 46°12' W 123°23'.

Length 12 m.

Type: Pollution control. MMSI: 3699126.

Date/timePositionNaut miles runAvg speedWind from/ knotsBaromVisibWave heightAir tempDewpointWater temp
2015-May-04 00:33N 46°12' W 123°23'43871.9
2015-May-04 00:30N 45°37' W 122°48'29206.8
2015-May-04 00:22N 46°05' W 122°56'2025.1
2015-May-03 23:33N 46°12' W 123°23'43881.9
2015-May-03 23:30N 45°37' W 122°48'29323.5
2015-May-03 23:25N 46°05' W 122°56'32179.0
2015-May-03 23:14N 45°34' W 122°45'4 6.1
2015-May-03 22:33N 45°37' W 122°48'4322047.4
2015-May-03 22:33N 46°12' W 123°23'20542.9
2015-May-03 22:31N 46°05' W 122°56'3233.0
2015-May-03 21:32N 45°34' W 122°45'4137.7
2015-May-03 21:30N 45°37' W 122°48'4338582.9
2015-May-03 21:30N 46°12' W 123°23'20534.9
2015-May-03 21:28N 46°05' W 122°56'0 0.0
2015-May-03 20:31N 46°05' W 122°56'292789.1
2015-May-03 20:30N 45°37' W 122°48'43843.3
2015-May-03 20:27N 46°12' W 123°23'472349.9
2015-May-03 20:26N 45°34' W 122°45'4753.4
2015-May-03 19:33N 46°12' W 123°23'20229.7
2015-May-03 19:28N 46°05' W 122°56'292789.1
2015-May-03 19:27N 45°37' W 122°48'415.3
2015-May-03 19:11N 45°34' W 122°45'4 6.6
2015-May-03 18:33N 45°37' W 122°48'4351449.8
2015-May-03 18:33N 46°12' W 123°23'47390.7
2015-May-03 18:26N 45°34' W 122°45'321741.4
2015-May-03 18:25N 46°05' W 122°56'2931.5
2015-May-03 17:30N 45°37' W 122°48'43282.7
2015-May-03 17:21N 46°12' W 123°23'20147.5
2015-May-03 17:13N 46°05' W 122°56'32401.0
2015-May-03 17:08N 45°34' W 122°45'4781.0
2015-May-03 16:33N 46°12' W 123°23'43876.9
2015-May-03 16:30N 45°37' W 122°48'29317.5
2015-May-03 16:25N 46°05' W 122°56'32140.4
2015-May-03 16:11N 45°34' W 122°45'4769.0
2015-May-03 15:30N 46°12' W 123°23'20232.7
2015-May-03 15:25N 46°05' W 122°56'2992.5
2015-May-03 15:06N 45°37' W 122°48'4203.5
2015-May-03 15:05N 45°34' W 122°45'3256.8
2015-May-03 14:31N 46°05' W 122°56'29482.3
2015-May-03 14:27N 45°37' W 122°48'4190.4
2015-May-03 14:26N 45°34' W 122°45'47359.2
2015-May-03 14:18N 46°12' W 123°23'4761.2
2015-May-03 13:32N 45°34' W 122°45'32271.4
2015-May-03 13:25N 46°05' W 122°56'201665.6
2015-May-03 13:24N 46°12' W 123°23'43438.5
2015-May-03 13:18N 45°37' W 122°48'4357.0
2015-May-03 12:33N 46°12' W 123°23'43887.1
2015-May-03 12:30N 45°37' W 122°48'29318.6
2015-May-03 12:25N 46°05' W 122°56'32179.0
2015-May-03 12:14N 45°34' W 122°45'0 0.0
2015-May-03 11:32N 45°34' W 122°45'4147.2
2015-May-03 11:30N 45°37' W 122°48'43803.8
2015-May-03 11:27N 46°12' W 123°23'20551.0
2015-May-03 11:25N 46°05' W 122°56'2023.6
2015-May-03 10:33N 46°12' W 123°23'20538.9
2015-May-03 10:31N 46°05' W 122°56'29489.1
2015-May-03 10:28N 45°37' W 122°48'4185.7
2015-May-03 10:26N 45°34' W 122°45'4753.3
2015-May-03 09:33N 46°12' W 123°23'43958.6
2015-May-03 09:31N 45°37' W 122°48'29678.9
2015-May-03 09:28N 46°05' W 122°56'32246.2
2015-May-03 09:20N 45°34' W 122°45'4 5.3
2015-May-03 08:34N 45°37' W 122°48'29688.0
2015-May-03 08:31N 46°05' W 122°56'201704.3
2015-May-03 08:30N 46°12' W 123°23'47679.4
2015-May-03 08:26N 45°34' W 122°45'4753.4
2015-May-03 07:33N 46°12' W 123°23'472452.0
2015-May-03 07:32N 45°34' W 122°45'453.7
2015-May-03 07:28N 45°37' W 122°48'29149.8
2015-May-03 07:16N 46°05' W 122°56'2028.5
2015-May-03 06:33N 46°12' W 123°23'472643.3
2015-May-03 06:32N 45°34' W 122°45'4144.1
2015-May-03 06:31N 45°37' W 122°48'29319.6
2015-May-03 06:25N 46°05' W 122°56'0 0.0
2015-May-03 05:31N 46°05' W 122°56'293822.2
2015-May-03 05:31N 45°37' W 122°48'438574.0
2015-May-03 05:30N 46°12' W 123°23'47174.8
2015-May-03 05:14N 45°34' W 122°45'3245.1
2015-May-03 04:31N 46°05' W 122°56'293329.7
2015-May-03 04:31N 45°37' W 122°48'456.9
2015-May-03 04:26N 45°34' W 122°45'476042.5
2015-May-03 04:26N 46°12' W 123°23'4349.3
2015-May-03 03:34N 45°37' W 122°48'431470.0
2015-May-03 03:32N 46°12' W 123°23'201628.6
2015-May-03 03:31N 46°05' W 122°56'321041.9
2015-May-03 03:29N 45°34' W 122°45'4749.1
2015-May-03 02:32N 46°12' W 123°23'201665.6
2015-May-03 02:31N 46°05' W 122°56'29498.6
2015-May-03 02:28N 45°37' W 122°48'433.2
2015-May-03 02:20N 45°34' W 122°45'0 0.0
2015-May-03 01:32N 45°34' W 122°45'4156.5
2015-May-03 01:31N 45°37' W 122°48'29210.2
2015-May-03 01:22N 46°05' W 122°56'20143.7
2015-May-03 01:14N 46°12' W 123°23'4359.5
2015-May-03 00:31N 45°37' W 122°48'29307.1
2015-May-03 00:25N 46°05' W 122°56'32246.7
2015-May-03 00:17N 45°34' W 122°45'476266.3
2015-May-03 00:17N 46°12' W 123°23'2026.7
2015-May-02 23:31N 46°05' W 122°56'29503.4
2015-May-02 23:28N 45°37' W 122°48'455.5
2015-May-02 23:23N 45°34' W 122°45'47226.8
2015-May-02 23:11N 46°12' W 123°23'2030.8
2015-May-02 22:31N 46°05' W 122°56'294127.9
2015-May-02 22:31N 45°37' W 122°48'455.2
2015-May-02 22:26N 45°34' W 122°45'47226.8
2015-May-02 22:14N 46°12' W 123°23'4767.9
2015-May-02 21:32N 45°34' W 122°45'477049.6
2015-May-02 21:32N 46°12' W 123°23'20182.3
2015-May-02 21:25N 46°05' W 122°56'29496.1
2015-May-02 21:22N 45°37' W 122°48'2934.0
2015-May-02 20:31N 46°05' W 122°56'20534.9
2015-May-02 20:29N 46°12' W 123°23'47327.9
2015-May-02 20:20N 45°34' W 122°45'4161.7
2015-May-02 20:19N 45°37' W 122°48'4354.8
2015-May-02 19:32N 46°12' W 123°23'47511.2
2015-May-02 19:26N 45°34' W 122°45'321795.3
2015-May-02 19:25N 46°05' W 122°56'29138.3
2015-May-02 19:13N 45°37' W 122°48'4 6.1
2015-May-02 18:32N 45°34' W 122°45'477049.6
2015-May-02 18:32N 46°12' W 123°23'20330.1
2015-May-02 18:28N 46°05' W 122°56'294299.9
2015-May-02 18:28N 45°37' W 122°48'4 4.5
2015-May-02 17:32N 45°34' W 122°45'476767.6
2015-May-02 17:32N 46°12' W 123°23'2096.0
2015-May-02 17:19N 46°05' W 122°56'29268.7
2015-May-02 17:13N 45°37' W 122°48'4362.8
2015-May-02 16:32N 46°12' W 123°23'43635.1
2015-May-02 16:28N 45°37' W 122°48'29200.4
2015-May-02 16:19N 46°05' W 122°56'32177.9
2015-May-02 16:08N 45°34' W 122°45'4 6.6
2015-May-02 15:31N 45°37' W 122°48'29661.5
2015-May-02 15:28N 46°05' W 122°56'32247.8
2015-May-02 15:20N 45°34' W 122°45'47434.9
2015-May-02 15:14N 46°12' W 123°23'2028.6
2015-May-02 14:31N 46°05' W 122°56'294300.8
2015-May-02 14:31N 45°37' W 122°48'455.4
2015-May-02 14:26N 45°34' W 122°45'475834.2
2015-May-02 14:26N 46°12' W 123°23'4346.7
2015-May-02 13:31N 45°37' W 122°48'454.8
2015-May-02 13:26N 45°34' W 122°45'321795.3
2015-May-02 13:25N 46°05' W 122°56'20146.6
2015-May-02 13:17N 46°12' W 123°23'4763.2
2015-May-02 12:32N 45°34' W 122°45'4168.8
2015-May-02 12:31N 45°37' W 122°48'431307.9
2015-May-02 12:29N 46°12' W 123°23'201980.7
2015-May-02 12:28N 46°05' W 122°56'0 0.0
2015-May-02 11:28N 46°05' W 122°56'321023.7
2015-May-02 11:26N 45°34' W 122°45'476507.4
2015-May-02 11:26N 46°12' W 123°23'432489.2
2015-May-02 11:25N 45°37' W 122°48'2932.1
2015-May-02 10:31N 46°05' W 122°56'294690.8
2015-May-02 10:31N 45°37' W 122°48'43183.3
2015-May-02 10:17N 46°12' W 123°23'47332.4
2015-May-02 10:08N 45°34' W 122°45'3252.4
2015-May-02 09:31N 46°05' W 122°56'294486.9
2015-May-02 09:31N 45°37' W 122°48'431307.9
2015-May-02 09:29N 46°12' W 123°23'4749.9
2015-May-02 08:32N 45°34' W 122°45'476507.4
2015-May-02 08:32N 46°12' W 123°23'201787.5
2015-May-02 08:31N 46°05' W 122°56'295431.5
2015-May-02 08:31N 45°37' W 122°48'4 4.2
2015-May-02 07:32N 45°34' W 122°45'321768.1
2015-May-02 07:31N 46°05' W 122°56'295159.9
2015-May-02 07:31N 45°37' W 122°48'43232.4
2015-May-02 07:20N 46°12' W 123°23'0 0.0
2015-May-02 06:32N 46°12' W 123°23'201832.1
2015-May-02 06:31N 46°05' W 122°56'295431.5
2015-May-02 06:31N 45°37' W 122°48'454.2
2015-May-02 06:26N 45°34' W 122°45'4751.8
2015-May-02 05:32N 46°12' W 123°23'43648.5
2015-May-02 05:28N 45°37' W 122°48'4154.7
2015-May-02 05:26N 45°34' W 122°45'321767.8
2015-May-02 05:25N 46°05' W 122°56'2930.0
2015-May-02 04:28N 45°37' W 122°48'4156.4
2015-May-02 04:26N 45°34' W 122°45'476507.4
2015-May-02 04:26N 46°12' W 123°23'201832.1
2015-May-02 04:25N 46°05' W 122°56'3236.8
2015-May-02 03:32N 45°34' W 122°45'476266.3
2015-May-02 03:32N 46°12' W 123°23'20333.1
2015-May-02 03:28N 46°05' W 122°56'29524.0
2015-May-02 03:25N 45°37' W 122°48'4 4.7
2015-May-02 02:32N 45°34' W 122°45'321741.4
2015-May-02 02:31N 46°05' W 122°56'29524.0
2015-May-02 02:28N 45°37' W 122°48'43506.1
2015-May-02 02:23N 46°12' W 123°23'4755.5
2015-May-02 01:32N 45°34' W 122°45'32507.4
2015-May-02 01:28N 46°05' W 122°56'295431.5
2015-May-02 01:28N 45°37' W 122°48'43165.8
2015-May-02 01:12N 46°12' W 123°23'2029.7
2015-May-02 00:31N 46°05' W 122°56'32918.7
2015-May-02 00:29N 45°34' W 122°45'47602.0
2015-May-02 00:24N 46°12' W 123°23'431042.8
2015-May-02 00:22N 45°37' W 122°48'4 5.0
2015-May-01 23:32N 45°34' W 122°45'322201.4
2015-May-01 23:31N 46°05' W 122°56'296449.9
2015-May-01 23:31N 45°37' W 122°48'43393.7
2015-May-01 23:24N 46°12' W 123°23'2023.0
2015-May-01 22:31N 46°05' W 122°56'295733.2
2015-May-01 22:31N 45°37' W 122°48'431.6
2015-May-01 22:23N 45°34' W 122°45'47599.9
2015-May-01 22:18N 46°12' W 123°23'4760.6
2015-May-01 21:32N 45°34' W 122°45'4260.9
2015-May-01 21:31N 45°37' W 122°48'434676.7
2015-May-01 21:30N 46°12' W 123°23'20235.6
2015-May-01 21:25N 46°05' W 122°56'2931.7
2015-May-01 20:31N 45°37' W 122°48'29625.4
2015-May-01 20:28N 46°05' W 122°56'201357.1
2015-May-01 20:27N 46°12' W 123°23'0 0.0
2015-May-01 19:33N 46°12' W 123°23'431035.8
2015-May-01 19:31N 45°37' W 122°48'29621.7
2015-May-01 19:28N 46°05' W 122°56'2022.3
2015-May-01 18:33N 46°12' W 123°23'2052.7
2015-May-01 18:10N 46°05' W 122°56'298601.6
2015-May-01 18:10N 45°37' W 122°48'4365.0
2015-May-01 17:30N 46°12' W 123°23'431064.4
2015-May-01 17:28N 45°37' W 122°48'29116.6
2015-May-01 17:13N 46°05' W 122°56'0 0.0
2015-May-01 16:31N 46°05' W 122°56'297938.3
2015-May-01 16:31N 45°37' W 122°48'43390.7
2015-May-01 16:24N 46°12' W 123°23'4348.2
2015-May-01 15:31N 45°37' W 122°48'43707.9
2015-May-01 15:27N 46°12' W 123°23'20572.5
2015-May-01 15:25N 46°05' W 122°56'2023.6
2015-May-01 14:33N 46°12' W 123°23'20559.4
2015-May-01 14:31N 46°05' W 122°56'29140.6
2015-May-01 14:19N 45°37' W 122°48'0 0.0
2015-May-01 13:31N 45°37' W 122°48'43164.4
2015-May-01 13:15N 46°12' W 123°23'20149.9
2015-May-01 13:07N 46°05' W 122°56'2947.5
2015-May-01 12:31N 45°37' W 122°48'43383.0
2015-May-01 12:24N 46°12' W 123°23'20581.6
2015-May-01 12:22N 46°05' W 122°56'2025.0
2015-May-01 11:33N 46°12' W 123°23'20577.1
2015-May-01 11:31N 46°05' W 122°56'298599.9
2015-May-01 11:31N 45°37' W 122°48'0 0.0
2015-May-01 10:31N 45°37' W 122°48'433355.0
2015-May-01 10:30N 46°12' W 123°23'20110.0
2015-May-01 10:19N 46°05' W 122°56'0 0.0
2015-May-01 09:31N 46°05' W 122°56'20314.5
2015-May-01 09:27N 46°12' W 123°23'431110.4
2015-May-01 09:25N 45°37' W 122°48'4349.8
2015-May-01 08:33N 46°12' W 123°23'20572.5
2015-May-01 08:31N 46°05' W 122°56'2910319.8
2015-May-01 08:31N 45°37' W 122°48'0 0.0
2015-May-01 07:28N 45°37' W 122°48'433355.0
2015-May-01 07:27N 46°12' W 123°23'20572.5
2015-May-01 07:25N 46°05' W 122°56'2023.5
2015-May-01 06:33N 46°12' W 123°23'431134.9
2015-May-01 06:31N 45°37' W 122°48'29600.1
2015-May-01 06:28N 46°05' W 122°56'2022.3
2015-May-01 05:33N 46°12' W 123°23'20577.1
2015-May-01 05:31N 46°05' W 122°56'2911468.9
2015-May-01 05:31N 45°37' W 122°48'2927.4
2015-May-01 04:28N 46°05' W 122°56'20179.6
2015-May-01 04:21N 46°12' W 123°23'43477.9
2015-May-01 04:16N 45°37' W 122°48'2938.4
2015-May-01 03:31N 46°05' W 122°56'29282.8
2015-May-01 03:25N 45°37' W 122°48'433150.0
2015-May-01 03:24N 46°12' W 123°23'0 0.0
2015-May-01 02:33N 46°12' W 123°23'431160.5
2015-May-01 02:31N 45°37' W 122°48'29596.6
2015-May-01 02:28N 46°05' W 122°56'0 0.0
2015-May-01 01:31N 46°05' W 122°56'201409.3
2015-May-01 01:30N 46°12' W 123°23'43489.9
2015-May-01 01:25N 45°37' W 122°48'2930.2
2015-May-01 00:28N 46°05' W 122°56'29551.9
2015-May-01 00:25N 45°37' W 122°48'43200.7
2015-May-01 00:12N 46°12' W 123°23'2029.7
2015-Apr-30 23:31N 46°05' W 122°56'2934399.5
2015-Apr-30 23:31N 45°37' W 122°48'43374.6
2015-Apr-30 23:24N 46°12' W 123°23'0 0.0
2015-Apr-30 22:33N 46°12' W 123°23'20568.1
2015-Apr-30 22:31N 46°05' W 122°56'2914742.6
2015-Apr-30 22:31N 45°37' W 122°48'0 0.0
2015-Apr-30 21:31N 45°37' W 122°48'433429.6
2015-Apr-30 21:30N 46°12' W 123°23'20563.7
2015-Apr-30 21:28N 46°05' W 122°56'2022.3
2015-Apr-30 20:33N 46°12' W 123°23'431178.1
2015-Apr-30 20:31N 45°37' W 122°48'29114.9
2015-Apr-30 20:16N 46°05' W 122°56'2028.5
2015-Apr-30 19:33N 46°12' W 123°23'20238.7
2015-Apr-30 19:28N 46°05' W 122°56'2981.7
2015-Apr-30 19:07N 45°37' W 122°48'0 0.0
2015-Apr-30 18:31N 45°37' W 122°48'432911.9
2015-Apr-30 18:30N 46°12' W 123°23'20240.3
2015-Apr-30 18:25N 46°05' W 122°56'0 0.0
2015-Apr-30 17:31N 46°05' W 122°56'20177.9
2015-Apr-30 17:24N 46°12' W 123°23'431365.8
2015-Apr-30 17:22N 45°37' W 122°48'2933.6
2015-Apr-30 16:31N 46°05' W 122°56'201437.0
2015-Apr-30 16:30N 46°12' W 123°23'43180.7
2015-Apr-30 16:16N 45°37' W 122°48'2938.3
2015-Apr-30 15:31N 46°05' W 122°56'2920639.7
2015-Apr-30 15:31N 45°37' W 122°48'433149.6
2015-Apr-30 15:30N 46°12' W 123°23'2020.7
2015-Apr-30 14:31N 46°05' W 122°56'2934406.6
2015-Apr-30 14:31N 45°37' W 122°48'433150.0
2015-Apr-30 14:30N 46°12' W 123°23'0 0.0
2015-Apr-30 13:33N 46°12' W 123°23'20586.3
2015-Apr-30 13:31N 46°05' W 122°56'29567.1
2015-Apr-30 13:28N 45°37' W 122°48'4346.9
2015-Apr-30 12:33N 46°12' W 123°23'20239.5
2015-Apr-30 12:28N 46°05' W 122°56'2022.2
2015-Apr-30 11:33N 46°12' W 123°23'20595.8
2015-Apr-30 11:31N 46°05' W 122°56'29573.3
2015-Apr-30 11:28N 45°37' W 122°48'4346.8
2015-Apr-30 10:33N 46°12' W 123°23'20581.6
2015-Apr-30 10:31N 46°05' W 122°56'29290.7
2015-Apr-30 10:25N 45°37' W 122°48'4349.5
2015-Apr-30 09:33N 46°12' W 123°23'43504.4
2015-Apr-30 09:28N 45°37' W 122°48'29567.0
2015-Apr-30 09:25N 46°05' W 122°56'2023.5
2015-Apr-30 08:33N 46°12' W 123°23'43506.0
2015-Apr-30 08:28N 45°37' W 122°48'29573.3
2015-Apr-30 08:25N 46°05' W 122°56'2023.5
2015-Apr-30 07:33N 46°12' W 123°23'20586.3
2015-Apr-30 07:31N 46°05' W 122°56'29287.5
2015-Apr-30 07:25N 45°37' W 122°48'4349.5
2015-Apr-30 06:33N 46°12' W 123°23'20572.5
2015-Apr-30 06:31N 46°05' W 122°56'29191.9
2015-Apr-30 06:22N 45°37' W 122°48'2933.7
2015-Apr-30 05:31N 46°05' W 122°56'201437.0
2015-Apr-30 05:30N 46°12' W 123°23'43150.7
2015-Apr-30 05:13N 45°37' W 122°48'2940.9
2015-Apr-30 04:31N 46°05' W 122°56'201332.5
2015-Apr-30 04:30N 46°12' W 123°23'43514.5
2015-Apr-30 04:25N 45°37' W 122°48'2931.8
2015-Apr-30 03:31N 46°05' W 122°56'20336.2
2015-Apr-30 03:27N 46°12' W 123°23'431094.6
2015-Apr-30 03:25N 45°37' W 122°48'0 0.0
2015-Apr-30 02:31N 45°37' W 122°48'2925799.6
2015-Apr-30 02:31N 46°05' W 122°56'201357.1
2015-Apr-30 02:30N 46°12' W 123°23'0 0.0
2015-Apr-30 01:33N 46°12' W 123°23'431275.6
2015-Apr-30 01:31N 45°37' W 122°48'2934406.6
2015-Apr-30 01:31N 46°05' W 122°56'2928.7
2015-Apr-30 00:31N 45°37' W 122°48'29285.1
2015-Apr-30 00:25N 46°05' W 122°56'201263.5
2015-Apr-30 00:24N 46°12' W 123°23'0 0.0
2015-Apr-29 23:33N 46°12' W 123°23'20568.1
2015-Apr-29 23:31N 46°05' W 122°56'29291.5
2015-Apr-29 23:25N 45°37' W 122°48'4349.4
2015-Apr-29 22:33N 46°12' W 123°23'43324.2
2015-Apr-29 22:25N 45°37' W 122°48'2912899.8
2015-Apr-29 22:25N 46°05' W 122°56'2931.9
2015-Apr-29 21:31N 45°37' W 122°48'2920639.7
2015-Apr-29 21:31N 46°05' W 122°56'20313.2
2015-Apr-29 21:27N 46°12' W 123°23'4345.9
2015-Apr-29 20:31N 45°37' W 122°48'432489.2
2015-Apr-29 20:30N 46°12' W 123°23'20150.5
2015-Apr-29 20:22N 46°05' W 122°56'2023.5
2015-Apr-29 19:30N 46°12' W 123°23'43519.6
2015-Apr-29 19:25N 45°37' W 122°48'2931.8
2015-Apr-29 18:31N 46°05' W 122°56'201465.7
2015-Apr-29 18:30N 46°12' W 123°23'43233.5
2015-Apr-29 18:19N 45°37' W 122°48'0 0.0
2015-Apr-29 17:31N 45°37' W 122°48'29540.3
2015-Apr-29 17:28N 46°05' W 122°56'2076.8
2015-Apr-29 17:12N 46°12' W 123°23'2029.7
2015-Apr-29 16:31N 46°05' W 122°56'201332.5
2015-Apr-29 16:30N 46°12' W 123°23'43523.2
2015-Apr-29 16:25N 45°37' W 122°48'2931.8
2015-Apr-29 15:31N 46°05' W 122°56'201357.1
2015-Apr-29 15:30N 46°12' W 123°23'431307.9
2015-Apr-29 15:28N 45°37' W 122°48'0 0.0
2015-Apr-29 14:31N 45°37' W 122°48'29549.0
2015-Apr-29 14:28N 46°05' W 122°56'20310.5
2015-Apr-29 14:24N 46°12' W 123°23'0 0.0
2015-Apr-29 13:33N 46°12' W 123°23'20568.2
2015-Apr-29 13:31N 46°05' W 122°56'29614.4
2015-Apr-29 13:28N 45°37' W 122°48'0 0.0
2015-Apr-29 12:31N 45°37' W 122°48'2914742.6
2015-Apr-29 12:31N 46°05' W 122°56'201332.5
2015-Apr-29 12:30N 46°12' W 123°23'0 0.0
2015-Apr-29 11:33N 46°12' W 123°23'20577.1
2015-Apr-29 11:31N 46°05' W 122°56'29618.0
2015-Apr-29 11:28N 45°37' W 122°48'4346.7
2015-Apr-29 10:33N 46°12' W 123°23'431342.0
2015-Apr-29 10:31N 45°37' W 122°48'29534.7
2015-Apr-29 10:28N 46°05' W 122°56'0 0.0
2015-Apr-29 09:31N 46°05' W 122°56'20225.5
2015-Apr-29 09:26N 46°12' W 123°23'438574.0
2015-Apr-29 09:25N 45°37' W 122°48'0 0.0
2015-Apr-29 08:28N 45°37' W 122°48'43964.7
2015-Apr-29 08:26N 46°12' W 123°23'20183.7
2015-Apr-29 08:19N 46°05' W 122°56'2025.8
2015-Apr-29 07:32N 46°12' W 123°23'201980.7
2015-Apr-29 07:31N 46°05' W 122°56'29300.0
2015-Apr-29 07:25N 45°37' W 122°48'0 0.0
2015-Apr-29 06:31N 45°37' W 122°48'296881.3
2015-Apr-29 06:31N 46°05' W 122°56'20229.0
2015-Apr-29 06:26N 46°12' W 123°23'4347.3
2015-Apr-29 05:31N 45°37' W 122°48'43952.8
2015-Apr-29 05:29N 46°12' W 123°23'20186.5
2015-Apr-29 05:22N 46°05' W 122°56'0 0.0
2015-Apr-29 04:25N 46°05' W 122°56'29302.7
2015-Apr-29 04:19N 45°37' W 122°48'43175.0
2015-Apr-29 04:05N 46°12' W 123°23'2036.4
2015-Apr-29 03:31N 46°05' W 122°56'20505.4
2015-Apr-29 03:29N 46°12' W 123°23'43406.1
2015-Apr-29 03:22N 45°37' W 122°48'0 0.0
2015-Apr-29 02:31N 45°37' W 122°48'43976.9
2015-Apr-29 02:29N 46°12' W 123°23'20333.1
2015-Apr-29 02:25N 46°05' W 122°56'2932.0
2015-Apr-29 01:31N 45°37' W 122°48'43976.8
2015-Apr-29 01:29N 46°12' W 123°23'202035.7
2015-Apr-29 01:28N 46°05' W 122°56'0 0.0
2015-Apr-29 00:31N 46°05' W 122°56'20516.1
2015-Apr-29 00:29N 46°12' W 123°23'43771.7
2015-Apr-29 00:25N 45°37' W 122°48'0 0.0
2015-Apr-28 23:31N 45°37' W 122°48'296879.9
2015-Apr-28 23:31N 46°05' W 122°56'20144.0
2015-Apr-28 23:23N 46°12' W 123°23'0 0.0
2015-Apr-28 22:29N 46°12' W 123°23'20127.9
2015-Apr-28 22:19N 46°05' W 122°56'29300.0
2015-Apr-28 22:13N 45°37' W 122°48'4361.7
2015-Apr-28 21:32N 46°12' W 123°23'201980.7
2015-Apr-28 21:31N 46°05' W 122°56'29 1.0
2015-Apr-27 18:05N 45°37' W 122°48'0 0.0
2015-Apr-27 17:32N 45°37' W 122°48'292195.7
2015-Apr-27 17:31N 46°05' W 122°56'2927.6
2015-Apr-27 16:29N 45°37' W 122°48'29458.7
2015-Apr-27 16:25N 46°05' W 122°56'20546.9
2015-Apr-27 16:23N 46°12' W 123°23'0 0.0
2015-Apr-27 15:32N 46°12' W 123°23'4325721.9
2015-Apr-27 15:32N 45°37' W 122°48'29456.6
2015-Apr-27 15:28N 46°05' W 122°56'2929.1
2015-Apr-27 14:29N 45°37' W 122°48'292106.5
2015-Apr-27 14:28N 46°05' W 122°56'20236.4
2015-Apr-27 14:23N 46°12' W 123°23'4350.4
2015-Apr-27 13:32N 45°37' W 122°48'292106.5
2015-Apr-27 13:31N 46°05' W 122°56'20559.4
2015-Apr-27 13:29N 46°12' W 123°23'4345.1
2015-Apr-27 12:32N 45°37' W 122°48'43867.0
2015-Apr-27 12:29N 46°12' W 123°23'20318.6
2015-Apr-27 12:25N 46°05' W 122°56'2932.4
2015-Apr-27 11:32N 45°37' W 122°48'43838.8
2015-Apr-27 11:29N 46°12' W 123°23'201559.3
2015-Apr-27 11:28N 46°05' W 122°56'2930.6
2015-Apr-27 10:32N 45°37' W 122°48'43848.0
2015-Apr-27 10:29N 46°12' W 123°23'4345.2
2015-Apr-27 09:32N 45°37' W 122°48'292106.1
2015-Apr-27 09:31N 46°05' W 122°56'20542.9
2015-Apr-27 09:29N 46°12' W 123°23'4345.2
2015-Apr-27 08:32N 45°37' W 122°48'4351443.9
2015-Apr-27 08:32N 46°12' W 123°23'20180.1
2015-Apr-27 08:25N 46°05' W 122°56'2021.7
2015-Apr-27 07:29N 46°12' W 123°23'43902.5
2015-Apr-27 07:26N 45°37' W 122°48'291911.1
2015-Apr-27 07:25N 46°05' W 122°56'0 0.0
2015-Apr-27 06:31N 46°05' W 122°56'29211.9
2015-Apr-27 06:23N 45°37' W 122°48'4330869.9
2015-Apr-27 06:23N 46°12' W 123°23'4350.5
2015-Apr-27 05:32N 45°37' W 122°48'4351449.8
2015-Apr-27 05:32N 46°12' W 123°23'20124.2
2015-Apr-27 05:22N 46°05' W 122°56'2934.3
2015-Apr-27 04:32N 45°37' W 122°48'4338582.9
2015-Apr-27 04:32N 46°12' W 123°23'20179.2
2015-Apr-27 04:25N 46°05' W 122°56'2932.4
2015-Apr-27 03:32N 45°37' W 122°48'4330869.9
2015-Apr-27 03:32N 46°12' W 123°23'2095.2
2015-Apr-27 03:19N 46°05' W 122°56'2934.3
2015-Apr-27 02:29N 45°37' W 122°48'43419.4
2015-Apr-27 02:23N 46°12' W 123°23'20125.1
2015-Apr-27 02:13N 46°05' W 122°56'2941.8
2015-Apr-27 01:32N 45°37' W 122°48'29437.3
2015-Apr-27 01:28N 46°05' W 122°56'20150.5
2015-Apr-27 01:20N 46°12' W 123°23'0 0.0
2015-Apr-27 00:29N 46°12' W 123°23'43876.9
2015-Apr-27 00:26N 45°37' W 122°48'29249.3
2015-Apr-27 00:19N 46°05' W 122°56'2929.1
2015-Apr-26 23:20N 45°37' W 122°48'43812.3
2015-Apr-26 23:17N 46°12' W 123°23'4353.8
2015-Apr-26 22:29N 45°37' W 122°48'291779.3
2015-Apr-26 22:28N 46°05' W 122°56'20109.1
2015-Apr-26 22:17N 46°12' W 123°23'2026.7
2015-Apr-26 21:31N 46°05' W 122°56'56361268144.4
2015-Apr-26 21:31S 32°46' W 071°32'560970854.4
2015-Apr-26 21:26N 45°37' W 122°48'43141.3
2015-Apr-26 21:08N 46°12' W 123°23'4371.8
2015-Apr-26 20:32N 45°37' W 122°48'436710.1
2015-Apr-26 20:31N 46°12' W 123°23'202155.5
2015-Apr-26 20:31N 46°05' W 122°56'2927.7
2015-Apr-26 19:29N 45°37' W 122°48'43767.8
2015-Apr-26 19:25N 46°12' W 123°23'20337.7
2015-Apr-26 19:22N 46°05' W 122°56'2934.4
2015-Apr-26 18:32N 45°37' W 122°48'436431.2
2015-Apr-26 18:31N 46°12' W 123°23'20186.5
2015-Apr-26 18:25N 46°05' W 122°56'2022.9
2015-Apr-26 17:31N 46°12' W 123°23'43458.0
2015-Apr-26 17:26N 45°37' W 122°48'2990.8
2015-Apr-26 17:07N 46°05' W 122°56'2949.2
2015-Apr-26 16:32N 45°37' W 122°48'43752.8
2015-Apr-26 16:29N 46°12' W 123°23'20340.9
2015-Apr-26 16:25N 46°05' W 122°56'2932.5
2015-Apr-26 15:32N 45°37' W 122°48'291664.5
2015-Apr-26 15:31N 46°05' W 122°56'20498.6
2015-Apr-26 15:28N 46°12' W 123°23'2021.2
2015-Apr-26 14:31N 46°05' W 122°56'20224.1
2015-Apr-26 14:25N 46°12' W 123°23'431002.3
2015-Apr-26 14:23N 45°37' W 122°48'0 0.0
2015-Apr-26 13:29N 45°37' W 122°48'436431.2
2015-Apr-26 13:28N 46°12' W 123°23'201980.7
2015-Apr-26 13:28N 46°05' W 122°56'2021.7
2015-Apr-26 12:32N 46°12' W 123°23'43453.9
2015-Apr-26 12:26N 45°37' W 122°48'291720.0
2015-Apr-26 12:25N 46°05' W 122°56'2932.5
2015-Apr-26 11:32N 45°37' W 122°48'435321.8
2015-Apr-26 11:31N 46°12' W 123°23'202155.5
2015-Apr-26 11:31N 46°05' W 122°56'2929.2
2015-Apr-26 10:32N 45°37' W 122°48'43742.0
2015-Apr-26 10:28N 46°12' W 123°23'202093.9
2015-Apr-26 10:28N 46°05' W 122°56'2930.8
2015-Apr-26 09:32N 45°37' W 122°48'435512.5
2015-Apr-26 09:31N 46°12' W 123°23'20339.3
2015-Apr-26 09:28N 46°05' W 122°56'2930.8
2015-Apr-26 08:32N 45°37' W 122°48'291612.5
2015-Apr-26 08:31N 46°05' W 122°56'20505.4
2015-Apr-26 08:28N 46°12' W 123°23'0 0.0
2015-Apr-26 07:31N 46°12' W 123°23'201928.6
2015-Apr-26 07:31N 46°05' W 122°56'29218.2
2015-Apr-26 07:23N 45°37' W 122°48'4347.2
2015-Apr-26 06:28N 46°12' W 123°23'202035.7
2015-Apr-26 06:28N 46°05' W 122°56'29889.6
2015-Apr-26 06:26N 45°37' W 122°48'4347.2
2015-Apr-26 05:31N 46°12' W 123°23'43470.6
2015-Apr-26 05:26N 45°37' W 122°48'29424.8
2015-Apr-26 05:22N 46°05' W 122°56'2934.4
2015-Apr-26 04:32N 45°37' W 122°48'435512.5
2015-Apr-26 04:31N 46°12' W 123°23'20337.7
2015-Apr-26 04:28N 46°05' W 122°56'2020.5
2015-Apr-26 03:28N 46°12' W 123°23'202364.1
2015-Apr-26 03:28N 46°05' W 122°56'29216.8
2015-Apr-26 03:20N 45°37' W 122°48'0 0.0
2015-Apr-26 02:32N 45°37' W 122°48'291540.3
2015-Apr-26 02:31N 46°05' W 122°56'20505.4
2015-Apr-26 02:28N 46°12' W 123°23'4345.6
2015-Apr-26 01:32N 45°37' W 122°48'435716.6
2015-Apr-26 01:32N 46°12' W 123°23'201832.3
2015-Apr-26 01:31N 46°05' W 122°56'2020.6
2015-Apr-26 00:31N 46°12' W 123°23'202155.5
2015-Apr-26 00:31N 46°05' W 122°56'29357.1
2015-Apr-26 00:26N 45°37' W 122°48'4344.7
2015-Apr-25 23:28N 46°12' W 123°23'202220.8
2015-Apr-25 23:28N 46°05' W 122°56'29124.2
2015-Apr-25 23:14N 45°37' W 122°48'0 0.0
2015-Apr-25 22:32N 45°37' W 122°48'434287.0
2015-Apr-25 22:31N 46°12' W 123°23'20127.7
2015-Apr-25 22:22N 46°05' W 122°56'2934.5
2015-Apr-25 21:32N 45°37' W 122°48'29409.5
2015-Apr-25 21:28N 46°05' W 122°56'20224.8
2015-Apr-25 21:22N 46°12' W 123°23'4351.1
2015-Apr-25 20:32N 45°37' W 122°48'434287.0
2015-Apr-25 20:31N 46°12' W 123°23'2097.5
2015-Apr-25 20:19N 46°05' W 122°56'2934.5
2015-Apr-25 19:29N 45°37' W 122°48'434410.0
2015-Apr-25 19:28N 46°12' W 123°23'2078.5
2015-Apr-25 19:13N 46°05' W 122°56'2942.1
2015-Apr-25 18:32N 45°37' W 122°48'434061.8
2015-Apr-25 18:31N 46°12' W 123°23'20345.7
2015-Apr-25 18:28N 46°05' W 122°56'2930.8
2015-Apr-25 17:32N 45°37' W 122°48'434061.4
2015-Apr-25 17:31N 46°12' W 123°23'2065.7
2015-Apr-25 17:13N 46°05' W 122°56'2942.1
2015-Apr-25 16:32N 45°37' W 122°48'434539.2
2015-Apr-25 16:31N 46°12' W 123°23'201928.6
2015-Apr-25 16:31N 46°05' W 122°56'2019.6
2015-Apr-25 15:28N 46°12' W 123°23'431094.7
2015-Apr-25 15:26N 45°37' W 122°48'291474.6
2015-Apr-25 15:25N 46°05' W 122°56'2023.5
2015-Apr-25 14:33N 46°12' W 123°23'43671.1
2015-Apr-25 14:29N 45°37' W 122°48'291453.8
2015-Apr-25 14:28N 46°05' W 122°56'2022.2
2015-Apr-25 13:33N 46°12' W 123°23'433150.0
2015-Apr-25 13:32N 45°37' W 122°48'2989.8
2015-Apr-25 13:13N 46°05' W 122°56'2030.5
2015-Apr-25 12:33N 46°12' W 123°23'433283.7
2015-Apr-25 12:32N 45°37' W 122°48'291453.5
2015-Apr-25 12:31N 46°05' W 122°56'2929.2
2015-Apr-25 11:32N 45°37' W 122°48'291376.0
2015-Apr-25 11:31N 46°05' W 122°56'20309.2
2015-Apr-25 11:27N 46°12' W 123°23'0 0.0
2015-Apr-25 10:33N 46°12' W 123°23'20600.7
2015-Apr-25 10:31N 46°05' W 122°56'29363.4
2015-Apr-25 10:26N 45°37' W 122°48'0 0.0
2015-Apr-25 09:32N 45°37' W 122°48'431126.5
2015-Apr-25 09:30N 46°12' W 123°23'20600.7
2015-Apr-25 09:28N 46°05' W 122°56'2022.2
2015-Apr-25 08:33N 46°12' W 123°23'433674.6
2015-Apr-25 08:32N 45°37' W 122°48'291376.0
2015-Apr-25 08:31N 46°05' W 122°56'0 0.0
2015-Apr-25 07:31N 46°05' W 122°56'201308.7
2015-Apr-25 07:30N 46°12' W 123°23'433355.0
2015-Apr-25 07:29N 45°37' W 122°48'4345.8
2015-Apr-25 06:33N 46°12' W 123°23'433215.2
2015-Apr-25 06:32N 45°37' W 122°48'29401.6
2015-Apr-25 06:28N 46°05' W 122°56'2022.2
2015-Apr-25 05:33N 46°12' W 123°23'20242.7
2015-Apr-25 05:28N 46°05' W 122°56'29992.5
2015-Apr-25 05:26N 45°37' W 122°48'0 0.0
2015-Apr-25 04:32N 45°37' W 122°48'43230.0
2015-Apr-25 04:21N 46°12' W 123°23'20151.1
2015-Apr-25 04:13N 46°05' W 122°56'2030.5
2015-Apr-25 03:33N 46°12' W 123°23'433589.1
2015-Apr-25 03:32N 45°37' W 122°48'29237.8
2015-Apr-25 03:25N 46°05' W 122°56'2023.5
2015-Apr-25 02:33N 46°12' W 123°23'433674.6
2015-Apr-25 02:32N 45°37' W 122°48'291340.2
2015-Apr-25 02:31N 46°05' W 122°56'0 0.0
2015-Apr-25 01:28N 46°05' W 122°56'291053.3
2015-Apr-25 01:26N 45°37' W 122°48'43179.7
2015-Apr-25 01:12N 46°12' W 123°23'4360.3
2015-Apr-25 00:29N 45°37' W 122°48'29165.9
2015-Apr-25 00:19N 46°05' W 122°56'0 0.0
2015-Apr-24 23:31N 46°05' W 122°56'20174.1
2015-Apr-24 23:24N 46°12' W 123°23'434171.1
2015-Apr-24 23:23N 45°37' W 122°48'3034.9
2015-Apr-24 22:32N 46°06' W 122°57'19459.5
2015-Apr-24 22:30N 46°12' W 123°23'43707.9
2015-Apr-24 22:26N 45°37' W 122°48'0 0.0
2015-Apr-24 21:32N 45°37' W 122°48'35222.2
2015-Apr-24 21:23N 46°10' W 123°03'1477.5
2015-Apr-24 21:12N 46°12' W 123°23'1419.1
2015-Apr-24 20:28N 46°10' W 123°03'14201.8
2015-Apr-24 20:24N 46°12' W 123°23'433674.6
2015-Apr-24 20:23N 45°37' W 122°48'0 0.0
2015-Apr-24 19:32N 45°37' W 122°48'353292.1
2015-Apr-24 19:32N 46°10' W 123°03'1450.0
2015-Apr-24 19:15N 46°12' W 123°23'4360.3
2015-Apr-24 18:32N 45°37' W 122°48'43477.8
2015-Apr-24 18:27N 46°12' W 123°23'14661.2
2015-Apr-24 18:26N 46°10' W 123°03'1415.0
2015-Apr-24 17:30N 46°12' W 123°23'43711.2
2015-Apr-24 17:26N 45°37' W 122°48'351307.6
2015-Apr-24 17:25N 46°10' W 123°04'1 0.6
2015-Apr-24 16:33N 46°10' W 123°04'131982.1
2015-Apr-24 16:33N 46°12' W 123°23'434171.1
2015-Apr-24 16:32N 45°37' W 122°48'4343.3
2015-Apr-24 15:33N 46°12' W 123°23'1416751.1
2015-Apr-24 15:33N 46°10' W 123°03'353909.4
2015-Apr-24 15:32N 45°37' W 122°48'2928.2
2015-Apr-24 14:31N 46°05' W 122°56'20842.4
2015-Apr-24 14:30N 46°12' W 123°23'434539.7
2015-Apr-24 14:29N 45°37' W 122°48'4345.6
2015-Apr-24 13:33N 46°12' W 123°23'434061.8
2015-Apr-24 13:32N 45°37' W 122°48'29245.8
2015-Apr-24 13:25N 46°05' W 122°56'2023.3
2015-Apr-24 12:33N 46°12' W 123°23'20755.5
2015-Apr-24 12:31N 46°05' W 122°56'29156.6
2015-Apr-24 12:20N 45°37' W 122°48'4354.3
2015-Apr-24 11:33N 46°12' W 123°23'434287.0
2015-Apr-24 11:32N 45°37' W 122°48'291638.1
2015-Apr-24 11:31N 46°05' W 122°56'2020.9
2015-Apr-24 10:33N 46°12' W 123°23'435144.4
2015-Apr-24 10:32N 45°37' W 122°48'291691.8
2015-Apr-24 10:31N 46°05' W 122°56'2929.2
2015-Apr-24 09:32N 45°37' W 122°48'291691.8
2015-Apr-24 09:31N 46°05' W 122°56'20842.4
2015-Apr-24 09:30N 46°12' W 123°23'4344.8
2015-Apr-24 08:32N 45°37' W 122°48'29239.4
2015-Apr-24 08:25N 46°05' W 122°56'20278.7
2015-Apr-24 08:21N 46°12' W 123°23'2023.2
2015-Apr-24 07:28N 46°05' W 122°56'20872.4
2015-Apr-24 07:27N 46°12' W 123°23'434539.2
2015-Apr-24 07:26N 45°37' W 122°48'0 0.0
2015-Apr-24 06:32N 45°37' W 122°48'291638.4
2015-Apr-24 06:31N 46°05' W 122°56'20164.7
2015-Apr-24 06:24N 46°12' W 123°23'0 0.0
2015-Apr-24 05:33N 46°12' W 123°23'434824.0
2015-Apr-24 05:32N 45°37' W 122°48'291664.8
2015-Apr-24 05:31N 46°05' W 122°56'2020.9
2015-Apr-24 04:33N 46°12' W 123°23'434677.3
2015-Apr-24 04:32N 45°37' W 122°48'291664.8
2015-Apr-24 04:31N 46°05' W 122°56'2019.9
2015-Apr-24 03:30N 46°12' W 123°23'434979.0
2015-Apr-24 03:29N 45°37' W 122°48'2990.4
2015-Apr-24 03:10N 46°05' W 122°56'2945.4
2015-Apr-24 02:32N 45°37' W 122°48'43464.9
2015-Apr-24 02:27N 46°12' W 123°23'20161.4
2015-Apr-24 02:19N 46°05' W 122°56'2026.3
2015-Apr-24 01:33N 46°12' W 123°23'43398.8
2015-Apr-24 01:26N 45°37' W 122°48'29241.7
2015-Apr-24 01:19N 46°05' W 122°56'  
Track history (hours):
 
Tides and Currents Weather Stations Pressure Air Temp Water Temp Dewpoint Dewpoint Depression Visibility Wind Speed Wind Dir Waves Ship Positions

Zarling

Owner: Clean Rivers Co-op, Portland, OR. More information available from US FCC via Universal Licensing System.

Last reported at 2015-May-04 00:33 UTC. Time now 2015-May-04 00:58 UTC.
Position N 46°12' W 123°23'.

Length 12 m.

Type: Pollution control. MMSI: 3699126.

Date/timePositionNaut miles runAvg speedWind from/ knotsBaromVisibWave heightAir tempDewpointWater temp
2015-May-04 00:33N 46°12' W 123°23'43871.9
2015-May-04 00:30N 45°37' W 122°48'29206.8
2015-May-04 00:22N 46°05' W 122°56'2025.1
2015-May-03 23:33N 46°12' W 123°23'43881.9
2015-May-03 23:30N 45°37' W 122°48'29323.5
2015-May-03 23:25N 46°05' W 122°56'32179.0
2015-May-03 23:14N 45°34' W 122°45'4 6.1
2015-May-03 22:33N 45°37' W 122°48'4322047.4
2015-May-03 22:33N 46°12' W 123°23'20542.9
2015-May-03 22:31N 46°05' W 122°56'3233.0
2015-May-03 21:32N 45°34' W 122°45'4137.7
2015-May-03 21:30N 45°37' W 122°48'4338582.9
2015-May-03 21:30N 46°12' W 123°23'20534.9
2015-May-03 21:28N 46°05' W 122°56'0 0.0
2015-May-03 20:31N 46°05' W 122°56'292789.1
2015-May-03 20:30N 45°37' W 122°48'43843.3
2015-May-03 20:27N 46°12' W 123°23'472349.9
2015-May-03 20:26N 45°34' W 122°45'4753.4
2015-May-03 19:33N 46°12' W 123°23'20229.7
2015-May-03 19:28N 46°05' W 122°56'292789.1
2015-May-03 19:27N 45°37' W 122°48'415.3
2015-May-03 19:11N 45°34' W 122°45'4 6.6
2015-May-03 18:33N 45°37' W 122°48'4351449.8
2015-May-03 18:33N 46°12' W 123°23'47390.7
2015-May-03 18:26N 45°34' W 122°45'321741.4
2015-May-03 18:25N 46°05' W 122°56'2931.5
2015-May-03 17:30N 45°37' W 122°48'43282.7
2015-May-03 17:21N 46°12' W 123°23'20147.5
2015-May-03 17:13N 46°05' W 122°56'32401.0
2015-May-03 17:08N 45°34' W 122°45'4781.0
2015-May-03 16:33N 46°12' W 123°23'43876.9
2015-May-03 16:30N 45°37' W 122°48'29317.5
2015-May-03 16:25N 46°05' W 122°56'32140.4
2015-May-03 16:11N 45°34' W 122°45'4769.0
2015-May-03 15:30N 46°12' W 123°23'20232.7
2015-May-03 15:25N 46°05' W 122°56'2992.5
2015-May-03 15:06N 45°37' W 122°48'4203.5
2015-May-03 15:05N 45°34' W 122°45'3256.8
2015-May-03 14:31N 46°05' W 122°56'29482.3
2015-May-03 14:27N 45°37' W 122°48'4190.4
2015-May-03 14:26N 45°34' W 122°45'47359.2
2015-May-03 14:18N 46°12' W 123°23'4761.2
2015-May-03 13:32N 45°34' W 122°45'32271.4
2015-May-03 13:25N 46°05' W 122°56'201665.6
2015-May-03 13:24N 46°12' W 123°23'43438.5
2015-May-03 13:18N 45°37' W 122°48'4357.0
2015-May-03 12:33N 46°12' W 123°23'43887.1
2015-May-03 12:30N 45°37' W 122°48'29318.6
2015-May-03 12:25N 46°05' W 122°56'32179.0
2015-May-03 12:14N 45°34' W 122°45'0 0.0
2015-May-03 11:32N 45°34' W 122°45'4147.2
2015-May-03 11:30N 45°37' W 122°48'43803.8
2015-May-03 11:27N 46°12' W 123°23'20551.0
2015-May-03 11:25N 46°05' W 122°56'2023.6
2015-May-03 10:33N 46°12' W 123°23'20538.9
2015-May-03 10:31N 46°05' W 122°56'29489.1
2015-May-03 10:28N 45°37' W 122°48'4185.7
2015-May-03 10:26N 45°34' W 122°45'4753.3
2015-May-03 09:33N 46°12' W 123°23'43958.6
2015-May-03 09:31N 45°37' W 122°48'29678.9
2015-May-03 09:28N 46°05' W 122°56'32246.2
2015-May-03 09:20N 45°34' W 122°45'4 5.3
2015-May-03 08:34N 45°37' W 122°48'29688.0
2015-May-03 08:31N 46°05' W 122°56'201704.3
2015-May-03 08:30N 46°12' W 123°23'47679.4
2015-May-03 08:26N 45°34' W 122°45'4753.4
2015-May-03 07:33N 46°12' W 123°23'472452.0
2015-May-03 07:32N 45°34' W 122°45'453.7
2015-May-03 07:28N 45°37' W 122°48'29149.8
2015-May-03 07:16N 46°05' W 122°56'2028.5
2015-May-03 06:33N 46°12' W 123°23'472643.3
2015-May-03 06:32N 45°34' W 122°45'4144.1
2015-May-03 06:31N 45°37' W 122°48'29319.6
2015-May-03 06:25N 46°05' W 122°56'0 0.0
2015-May-03 05:31N 46°05' W 122°56'293822.2
2015-May-03 05:31N 45°37' W 122°48'438574.0
2015-May-03 05:30N 46°12' W 123°23'47174.8
2015-May-03 05:14N 45°34' W 122°45'3245.1
2015-May-03 04:31N 46°05' W 122°56'293329.7
2015-May-03 04:31N 45°37' W 122°48'456.9
2015-May-03 04:26N 45°34' W 122°45'476042.5
2015-May-03 04:26N 46°12' W 123°23'4349.3
2015-May-03 03:34N 45°37' W 122°48'431470.0
2015-May-03 03:32N 46°12' W 123°23'201628.6
2015-May-03 03:31N 46°05' W 122°56'321041.9
2015-May-03 03:29N 45°34' W 122°45'4749.1
2015-May-03 02:32N 46°12' W 123°23'201665.6
2015-May-03 02:31N 46°05' W 122°56'29498.6
2015-May-03 02:28N 45°37' W 122°48'433.2
2015-May-03 02:20N 45°34' W 122°45'0 0.0
2015-May-03 01:32N 45°34' W 122°45'4156.5
2015-May-03 01:31N 45°37' W 122°48'29210.2
2015-May-03 01:22N 46°05' W 122°56'20143.7
2015-May-03 01:14N 46°12' W 123°23'4359.5
2015-May-03 00:31N 45°37' W 122°48'29307.1
2015-May-03 00:25N 46°05' W 122°56'32246.7
2015-May-03 00:17N 45°34' W 122°45'476266.3
2015-May-03 00:17N 46°12' W 123°23'2026.7
2015-May-02 23:31N 46°05' W 122°56'29503.4
2015-May-02 23:28N 45°37' W 122°48'455.5
2015-May-02 23:23N 45°34' W 122°45'47226.8
2015-May-02 23:11N 46°12' W 123°23'2030.8
2015-May-02 22:31N 46°05' W 122°56'294127.9
2015-May-02 22:31N 45°37' W 122°48'455.2
2015-May-02 22:26N 45°34' W 122°45'47226.8
2015-May-02 22:14N 46°12' W 123°23'4767.9
2015-May-02 21:32N 45°34' W 122°45'477049.6
2015-May-02 21:32N 46°12' W 123°23'20182.3
2015-May-02 21:25N 46°05' W 122°56'29496.1
2015-May-02 21:22N 45°37' W 122°48'2934.0
2015-May-02 20:31N 46°05' W 122°56'20534.9
2015-May-02 20:29N 46°12' W 123°23'47327.9
2015-May-02 20:20N 45°34' W 122°45'4161.7
2015-May-02 20:19N 45°37' W 122°48'4354.8
2015-May-02 19:32N 46°12' W 123°23'47511.2
2015-May-02 19:26N 45°34' W 122°45'321795.3
2015-May-02 19:25N 46°05' W 122°56'29138.3
2015-May-02 19:13N 45°37' W 122°48'4 6.1
2015-May-02 18:32N 45°34' W 122°45'477049.6
2015-May-02 18:32N 46°12' W 123°23'20330.1
2015-May-02 18:28N 46°05' W 122°56'294299.9
2015-May-02 18:28N 45°37' W 122°48'4 4.5
2015-May-02 17:32N 45°34' W 122°45'476767.6
2015-May-02 17:32N 46°12' W 123°23'2096.0
2015-May-02 17:19N 46°05' W 122°56'29268.7
2015-May-02 17:13N 45°37' W 122°48'4362.8
2015-May-02 16:32N 46°12' W 123°23'43635.1
2015-May-02 16:28N 45°37' W 122°48'29200.4
2015-May-02 16:19N 46°05' W 122°56'32177.9
2015-May-02 16:08N 45°34' W 122°45'4 6.6
2015-May-02 15:31N 45°37' W 122°48'29661.5
2015-May-02 15:28N 46°05' W 122°56'32247.8
2015-May-02 15:20N 45°34' W 122°45'47434.9
2015-May-02 15:14N 46°12' W 123°23'2028.6
2015-May-02 14:31N 46°05' W 122°56'294300.8
2015-May-02 14:31N 45°37' W 122°48'455.4
2015-May-02 14:26N 45°34' W 122°45'475834.2
2015-May-02 14:26N 46°12' W 123°23'4346.7
2015-May-02 13:31N 45°37' W 122°48'454.8
2015-May-02 13:26N 45°34' W 122°45'321795.3
2015-May-02 13:25N 46°05' W 122°56'20146.6
2015-May-02 13:17N 46°12' W 123°23'4763.2
2015-May-02 12:32N 45°34' W 122°45'4168.8
2015-May-02 12:31N 45°37' W 122°48'431307.9
2015-May-02 12:29N 46°12' W 123°23'201980.7
2015-May-02 12:28N 46°05' W 122°56'0 0.0
2015-May-02 11:28N 46°05' W 122°56'321023.7
2015-May-02 11:26N 45°34' W 122°45'476507.4
2015-May-02 11:26N 46°12' W 123°23'432489.2
2015-May-02 11:25N 45°37' W 122°48'2932.1
2015-May-02 10:31N 46°05' W 122°56'294690.8
2015-May-02 10:31N 45°37' W 122°48'43183.3
2015-May-02 10:17N 46°12' W 123°23'47332.4
2015-May-02 10:08N 45°34' W 122°45'3252.4
2015-May-02 09:31N 46°05' W 122°56'294486.9
2015-May-02 09:31N 45°37' W 122°48'431307.9
2015-May-02 09:29N 46°12' W 123°23'4749.9
2015-May-02 08:32N 45°34' W 122°45'476507.4
2015-May-02 08:32N 46°12' W 123°23'201787.5
2015-May-02 08:31N 46°05' W 122°56'295431.5
2015-May-02 08:31N 45°37' W 122°48'4 4.2
2015-May-02 07:32N 45°34' W 122°45'321768.1
2015-May-02 07:31N 46°05' W 122°56'295159.9
2015-May-02 07:31N 45°37' W 122°48'43232.4
2015-May-02 07:20N 46°12' W 123°23'0 0.0
2015-May-02 06:32N 46°12' W 123°23'201832.1
2015-May-02 06:31N 46°05' W 122°56'295431.5
2015-May-02 06:31N 45°37' W 122°48'454.2
2015-May-02 06:26N 45°34' W 122°45'4751.8
2015-May-02 05:32N 46°12' W 123°23'43648.5
2015-May-02 05:28N 45°37' W 122°48'4154.7
2015-May-02 05:26N 45°34' W 122°45'321767.8
2015-May-02 05:25N 46°05' W 122°56'2930.0
2015-May-02 04:28N 45°37' W 122°48'4156.4
2015-May-02 04:26N 45°34' W 122°45'476507.4
2015-May-02 04:26N 46°12' W 123°23'201832.1
2015-May-02 04:25N 46°05' W 122°56'3236.8
2015-May-02 03:32N 45°34' W 122°45'476266.3
2015-May-02 03:32N 46°12' W 123°23'20333.1
2015-May-02 03:28N 46°05' W 122°56'29524.0
2015-May-02 03:25N 45°37' W 122°48'4 4.7
2015-May-02 02:32N 45°34' W 122°45'321741.4
2015-May-02 02:31N 46°05' W 122°56'29524.0
2015-May-02 02:28N 45°37' W 122°48'43506.1
2015-May-02 02:23N 46°12' W 123°23'4755.5
2015-May-02 01:32N 45°34' W 122°45'32507.4
2015-May-02 01:28N 46°05' W 122°56'295431.5
2015-May-02 01:28N 45°37' W 122°48'43165.8
2015-May-02 01:12N 46°12' W 123°23'2029.7
2015-May-02 00:31N 46°05' W 122°56'32918.7
2015-May-02 00:29N 45°34' W 122°45'47602.0
2015-May-02 00:24N 46°12' W 123°23'431042.8
2015-May-02 00:22N 45°37' W 122°48'4 5.0
2015-May-01 23:32N 45°34' W 122°45'322201.4
2015-May-01 23:31N 46°05' W 122°56'296449.9
2015-May-01 23:31N 45°37' W 122°48'43393.7
2015-May-01 23:24N 46°12' W 123°23'2023.0
2015-May-01 22:31N 46°05' W 122°56'295733.2
2015-May-01 22:31N 45°37' W 122°48'431.6
2015-May-01 22:23N 45°34' W 122°45'47599.9
2015-May-01 22:18N 46°12' W 123°23'4760.6
2015-May-01 21:32N 45°34' W 122°45'4260.9
2015-May-01 21:31N 45°37' W 122°48'434676.7
2015-May-01 21:30N 46°12' W 123°23'20235.6
2015-May-01 21:25N 46°05' W 122°56'2931.7
2015-May-01 20:31N 45°37' W 122°48'29625.4
2015-May-01 20:28N 46°05' W 122°56'201357.1
2015-May-01 20:27N 46°12' W 123°23'0 0.0
2015-May-01 19:33N 46°12' W 123°23'431035.8
2015-May-01 19:31N 45°37' W 122°48'29621.7
2015-May-01 19:28N 46°05' W 122°56'2022.3
2015-May-01 18:33N 46°12' W 123°23'2052.7
2015-May-01 18:10N 46°05' W 122°56'298601.6
2015-May-01 18:10N 45°37' W 122°48'4365.0
2015-May-01 17:30N 46°12' W 123°23'431064.4
2015-May-01 17:28N 45°37' W 122°48'29116.6
2015-May-01 17:13N 46°05' W 122°56'0 0.0
2015-May-01 16:31N 46°05' W 122°56'297938.3
2015-May-01 16:31N 45°37' W 122°48'43390.7
2015-May-01 16:24N 46°12' W 123°23'4348.2
2015-May-01 15:31N 45°37' W 122°48'43707.9
2015-May-01 15:27N 46°12' W 123°23'20572.5
2015-May-01 15:25N 46°05' W 122°56'2023.6
2015-May-01 14:33N 46°12' W 123°23'20559.4
2015-May-01 14:31N 46°05' W 122°56'29140.6
2015-May-01 14:19N 45°37' W 122°48'0 0.0
2015-May-01 13:31N 45°37' W 122°48'43164.4
2015-May-01 13:15N 46°12' W 123°23'20149.9
2015-May-01 13:07N 46°05' W 122°56'2947.5
2015-May-01 12:31N 45°37' W 122°48'43383.0
2015-May-01 12:24N 46°12' W 123°23'20581.6
2015-May-01 12:22N 46°05' W 122°56'2025.0
2015-May-01 11:33N 46°12' W 123°23'20577.1
2015-May-01 11:31N 46°05' W 122°56'298599.9
2015-May-01 11:31N 45°37' W 122°48'0 0.0
2015-May-01 10:31N 45°37' W 122°48'433355.0
2015-May-01 10:30N 46°12' W 123°23'20110.0
2015-May-01 10:19N 46°05' W 122°56'0 0.0
2015-May-01 09:31N 46°05' W 122°56'20314.5
2015-May-01 09:27N 46°12' W 123°23'431110.4
2015-May-01 09:25N 45°37' W 122°48'4349.8
2015-May-01 08:33N 46°12' W 123°23'20572.5
2015-May-01 08:31N 46°05' W 122°56'2910319.8
2015-May-01 08:31N 45°37' W 122°48'0 0.0
2015-May-01 07:28N 45°37' W 122°48'433355.0
2015-May-01 07:27N 46°12' W 123°23'20572.5
2015-May-01 07:25N 46°05' W 122°56'2023.5
2015-May-01 06:33N 46°12' W 123°23'431134.9
2015-May-01 06:31N 45°37' W 122°48'29600.1
2015-May-01 06:28N 46°05' W 122°56'2022.3
2015-May-01 05:33N 46°12' W 123°23'20577.1
2015-May-01 05:31N 46°05' W 122°56'2911468.9
2015-May-01 05:31N 45°37' W 122°48'2927.4
2015-May-01 04:28N 46°05' W 122°56'20179.6
2015-May-01 04:21N 46°12' W 123°23'43477.9
2015-May-01 04:16N 45°37' W 122°48'2938.4
2015-May-01 03:31N 46°05' W 122°56'29282.8
2015-May-01 03:25N 45°37' W 122°48'433150.0
2015-May-01 03:24N 46°12' W 123°23'0 0.0
2015-May-01 02:33N 46°12' W 123°23'431160.5
2015-May-01 02:31N 45°37' W 122°48'29596.6
2015-May-01 02:28N 46°05' W 122°56'0 0.0
2015-May-01 01:31N 46°05' W 122°56'201409.3
2015-May-01 01:30N 46°12' W 123°23'43489.9
2015-May-01 01:25N 45°37' W 122°48'2930.2
2015-May-01 00:28N 46°05' W 122°56'29551.9
2015-May-01 00:25N 45°37' W 122°48'43200.7
2015-May-01 00:12N 46°12' W 123°23'2029.7
2015-Apr-30 23:31N 46°05' W 122°56'2934399.5
2015-Apr-30 23:31N 45°37' W 122°48'43374.6
2015-Apr-30 23:24N 46°12' W 123°23'0 0.0
2015-Apr-30 22:33N 46°12' W 123°23'20568.1
2015-Apr-30 22:31N 46°05' W 122°56'2914742.6
2015-Apr-30 22:31N 45°37' W 122°48'0 0.0
2015-Apr-30 21:31N 45°37' W 122°48'433429.6
2015-Apr-30 21:30N 46°12' W 123°23'20563.7
2015-Apr-30 21:28N 46°05' W 122°56'2022.3
2015-Apr-30 20:33N 46°12' W 123°23'431178.1
2015-Apr-30 20:31N 45°37' W 122°48'29114.9
2015-Apr-30 20:16N 46°05' W 122°56'2028.5
2015-Apr-30 19:33N 46°12' W 123°23'20238.7
2015-Apr-30 19:28N 46°05' W 122°56'2981.7
2015-Apr-30 19:07N 45°37' W 122°48'0 0.0
2015-Apr-30 18:31N 45°37' W 122°48'432911.9
2015-Apr-30 18:30N 46°12' W 123°23'20240.3
2015-Apr-30 18:25N 46°05' W 122°56'0 0.0
2015-Apr-30 17:31N 46°05' W 122°56'20177.9
2015-Apr-30 17:24N 46°12' W 123°23'431365.8
2015-Apr-30 17:22N 45°37' W 122°48'2933.6
2015-Apr-30 16:31N 46°05' W 122°56'201437.0
2015-Apr-30 16:30N 46°12' W 123°23'43180.7
2015-Apr-30 16:16N 45°37' W 122°48'2938.3
2015-Apr-30 15:31N 46°05' W 122°56'2920639.7
2015-Apr-30 15:31N 45°37' W 122°48'433149.6
2015-Apr-30 15:30N 46°12' W 123°23'2020.7
2015-Apr-30 14:31N 46°05' W 122°56'2934406.6
2015-Apr-30 14:31N 45°37' W 122°48'433150.0
2015-Apr-30 14:30N 46°12' W 123°23'0 0.0
2015-Apr-30 13:33N 46°12' W 123°23'20586.3
2015-Apr-30 13:31N 46°05' W 122°56'29567.1
2015-Apr-30 13:28N 45°37' W 122°48'4346.9
2015-Apr-30 12:33N 46°12' W 123°23'20239.5
2015-Apr-30 12:28N 46°05' W 122°56'2022.2
2015-Apr-30 11:33N 46°12' W 123°23'20595.8
2015-Apr-30 11:31N 46°05' W 122°56'29573.3
2015-Apr-30 11:28N 45°37' W 122°48'4346.8
2015-Apr-30 10:33N 46°12' W 123°23'20581.6
2015-Apr-30 10:31N 46°05' W 122°56'29290.7
2015-Apr-30 10:25N 45°37' W 122°48'4349.5
2015-Apr-30 09:33N 46°12' W 123°23'43504.4
2015-Apr-30 09:28N 45°37' W 122°48'29567.0
2015-Apr-30 09:25N 46°05' W 122°56'2023.5
2015-Apr-30 08:33N 46°12' W 123°23'43506.0
2015-Apr-30 08:28N 45°37' W 122°48'29573.3
2015-Apr-30 08:25N 46°05' W 122°56'2023.5
2015-Apr-30 07:33N 46°12' W 123°23'20586.3
2015-Apr-30 07:31N 46°05' W 122°56'29287.5
2015-Apr-30 07:25N 45°37' W 122°48'4349.5
2015-Apr-30 06:33N 46°12' W 123°23'20572.5
2015-Apr-30 06:31N 46°05' W 122°56'29191.9
2015-Apr-30 06:22N 45°37' W 122°48'2933.7
2015-Apr-30 05:31N 46°05' W 122°56'201437.0
2015-Apr-30 05:30N 46°12' W 123°23'43150.7
2015-Apr-30 05:13N 45°37' W 122°48'2940.9
2015-Apr-30 04:31N 46°05' W 122°56'201332.5
2015-Apr-30 04:30N 46°12' W 123°23'43514.5
2015-Apr-30 04:25N 45°37' W 122°48'2931.8
2015-Apr-30 03:31N 46°05' W 122°56'20336.2
2015-Apr-30 03:27N 46°12' W 123°23'431094.6
2015-Apr-30 03:25N 45°37' W 122°48'0 0.0
2015-Apr-30 02:31N 45°37' W 122°48'2925799.6
2015-Apr-30 02:31N 46°05' W 122°56'201357.1
2015-Apr-30 02:30N 46°12' W 123°23'0 0.0
2015-Apr-30 01:33N 46°12' W 123°23'431275.6
2015-Apr-30 01:31N 45°37' W 122°48'2934406.6
2015-Apr-30 01:31N 46°05' W 122°56'2928.7
2015-Apr-30 00:31N 45°37' W 122°48'29285.1
2015-Apr-30 00:25N 46°05' W 122°56'201263.5
2015-Apr-30 00:24N 46°12' W 123°23'0 0.0
2015-Apr-29 23:33N 46°12' W 123°23'20568.1
2015-Apr-29 23:31N 46°05' W 122°56'29291.5
2015-Apr-29 23:25N 45°37' W 122°48'4349.4
2015-Apr-29 22:33N 46°12' W 123°23'43324.2
2015-Apr-29 22:25N 45°37' W 122°48'2912899.8
2015-Apr-29 22:25N 46°05' W 122°56'2931.9
2015-Apr-29 21:31N 45°37' W 122°48'2920639.7
2015-Apr-29 21:31N 46°05' W 122°56'20313.2
2015-Apr-29 21:27N 46°12' W 123°23'4345.9
2015-Apr-29 20:31N 45°37' W 122°48'432489.2
2015-Apr-29 20:30N 46°12' W 123°23'20150.5
2015-Apr-29 20:22N 46°05' W 122°56'2023.5
2015-Apr-29 19:30N 46°12' W 123°23'43519.6
2015-Apr-29 19:25N 45°37' W 122°48'2931.8
2015-Apr-29 18:31N 46°05' W 122°56'201465.7
2015-Apr-29 18:30N 46°12' W 123°23'43233.5
2015-Apr-29 18:19N 45°37' W 122°48'0 0.0
2015-Apr-29 17:31N 45°37' W 122°48'29540.3
2015-Apr-29 17:28N 46°05' W 122°56'2076.8
2015-Apr-29 17:12N 46°12' W 123°23'2029.7
2015-Apr-29 16:31N 46°05' W 122°56'201332.5
2015-Apr-29 16:30N 46°12' W 123°23'43523.2
2015-Apr-29 16:25N 45°37' W 122°48'2931.8
2015-Apr-29 15:31N 46°05' W 122°56'201357.1
2015-Apr-29 15:30N 46°12' W 123°23'431307.9
2015-Apr-29 15:28N 45°37' W 122°48'0 0.0
2015-Apr-29 14:31N 45°37' W 122°48'29549.0
2015-Apr-29 14:28N 46°05' W 122°56'20310.5
2015-Apr-29 14:24N 46°12' W 123°23'0 0.0
2015-Apr-29 13:33N 46°12' W 123°23'20568.2
2015-Apr-29 13:31N 46°05' W 122°56'29614.4
2015-Apr-29 13:28N 45°37' W 122°48'0 0.0
2015-Apr-29 12:31N 45°37' W 122°48'2914742.6
2015-Apr-29 12:31N 46°05' W 122°56'201332.5
2015-Apr-29 12:30N 46°12' W 123°23'0 0.0
2015-Apr-29 11:33N 46°12' W 123°23'20577.1
2015-Apr-29 11:31N 46°05' W 122°56'29618.0
2015-Apr-29 11:28N 45°37' W 122°48'4346.7
2015-Apr-29 10:33N 46°12' W 123°23'431342.0
2015-Apr-29 10:31N 45°37' W 122°48'29534.7
2015-Apr-29 10:28N 46°05' W 122°56'0 0.0
2015-Apr-29 09:31N 46°05' W 122°56'20225.5
2015-Apr-29 09:26N 46°12' W 123°23'438574.0
2015-Apr-29 09:25N 45°37' W 122°48'0 0.0
2015-Apr-29 08:28N 45°37' W 122°48'43964.7
2015-Apr-29 08:26N 46°12' W 123°23'20183.7
2015-Apr-29 08:19N 46°05' W 122°56'2025.8
2015-Apr-29 07:32N 46°12' W 123°23'201980.7
2015-Apr-29 07:31N 46°05' W 122°56'29300.0
2015-Apr-29 07:25N 45°37' W 122°48'0 0.0
2015-Apr-29 06:31N 45°37' W 122°48'296881.3
2015-Apr-29 06:31N 46°05' W 122°56'20229.0
2015-Apr-29 06:26N 46°12' W 123°23'4347.3
2015-Apr-29 05:31N 45°37' W 122°48'43952.8
2015-Apr-29 05:29N 46°12' W 123°23'20186.5
2015-Apr-29 05:22N 46°05' W 122°56'0 0.0
2015-Apr-29 04:25N 46°05' W 122°56'29302.7
2015-Apr-29 04:19N 45°37' W 122°48'43175.0
2015-Apr-29 04:05N 46°12' W 123°23'2036.4
2015-Apr-29 03:31N 46°05' W 122°56'20505.4
2015-Apr-29 03:29N 46°12' W 123°23'43406.1
2015-Apr-29 03:22N 45°37' W 122°48'0 0.0
2015-Apr-29 02:31N 45°37' W 122°48'43976.9
2015-Apr-29 02:29N 46°12' W 123°23'20333.1
2015-Apr-29 02:25N 46°05' W 122°56'2932.0
2015-Apr-29 01:31N 45°37' W 122°48'43976.8
2015-Apr-29 01:29N 46°12' W 123°23'202035.7
2015-Apr-29 01:28N 46°05' W 122°56'0 0.0
2015-Apr-29 00:31N 46°05' W 122°56'20516.1
2015-Apr-29 00:29N 46°12' W 123°23'43771.7
2015-Apr-29 00:25N 45°37' W 122°48'0 0.0
2015-Apr-28 23:31N 45°37' W 122°48'296879.9
2015-Apr-28 23:31N 46°05' W 122°56'20144.0
2015-Apr-28 23:23N 46°12' W 123°23'0 0.0
2015-Apr-28 22:29N 46°12' W 123°23'20127.9
2015-Apr-28 22:19N 46°05' W 122°56'29300.0
2015-Apr-28 22:13N 45°37' W 122°48'4361.7
2015-Apr-28 21:32N 46°12' W 123°23'201980.7
2015-Apr-28 21:31N 46°05' W 122°56'29 1.0
2015-Apr-27 18:05N 45°37' W 122°48'0 0.0
2015-Apr-27 17:32N 45°37' W 122°48'292195.7
2015-Apr-27 17:31N 46°05' W 122°56'2927.6
2015-Apr-27 16:29N 45°37' W 122°48'29458.7
2015-Apr-27 16:25N 46°05' W 122°56'20546.9
2015-Apr-27 16:23N 46°12' W 123°23'0 0.0
2015-Apr-27 15:32N 46°12' W 123°23'4325721.9
2015-Apr-27 15:32N 45°37' W 122°48'29456.6
2015-Apr-27 15:28N 46°05' W 122°56'2929.1
2015-Apr-27 14:29N 45°37' W 122°48'292106.5
2015-Apr-27 14:28N 46°05' W 122°56'20236.4
2015-Apr-27 14:23N 46°12' W 123°23'4350.4
2015-Apr-27 13:32N 45°37' W 122°48'292106.5
2015-Apr-27 13:31N 46°05' W 122°56'20559.4
2015-Apr-27 13:29N 46°12' W 123°23'4345.1
2015-Apr-27 12:32N 45°37' W 122°48'43867.0
2015-Apr-27 12:29N 46°12' W 123°23'20318.6
2015-Apr-27 12:25N 46°05' W 122°56'2932.4
2015-Apr-27 11:32N 45°37' W 122°48'43838.8
2015-Apr-27 11:29N 46°12' W 123°23'201559.3
2015-Apr-27 11:28N 46°05' W 122°56'2930.6
2015-Apr-27 10:32N 45°37' W 122°48'43848.0
2015-Apr-27 10:29N 46°12' W 123°23'4345.2
2015-Apr-27 09:32N 45°37' W 122°48'292106.1
2015-Apr-27 09:31N 46°05' W 122°56'20542.9
2015-Apr-27 09:29N 46°12' W 123°23'4345.2
2015-Apr-27 08:32N 45°37' W 122°48'4351443.9
2015-Apr-27 08:32N 46°12' W 123°23'20180.1
2015-Apr-27 08:25N 46°05' W 122°56'2021.7
2015-Apr-27 07:29N 46°12' W 123°23'43902.5
2015-Apr-27 07:26N 45°37' W 122°48'291911.1
2015-Apr-27 07:25N 46°05' W 122°56'0 0.0
2015-Apr-27 06:31N 46°05' W 122°56'29211.9
2015-Apr-27 06:23N 45°37' W 122°48'4330869.9
2015-Apr-27 06:23N 46°12' W 123°23'4350.5
2015-Apr-27 05:32N 45°37' W 122°48'4351449.8
2015-Apr-27 05:32N 46°12' W 123°23'20124.2
2015-Apr-27 05:22N 46°05' W 122°56'2934.3
2015-Apr-27 04:32N 45°37' W 122°48'4338582.9
2015-Apr-27 04:32N 46°12' W 123°23'20179.2
2015-Apr-27 04:25N 46°05' W 122°56'2932.4
2015-Apr-27 03:32N 45°37' W 122°48'4330869.9
2015-Apr-27 03:32N 46°12' W 123°23'2095.2
2015-Apr-27 03:19N 46°05' W 122°56'2934.3
2015-Apr-27 02:29N 45°37' W 122°48'43419.4
2015-Apr-27 02:23N 46°12' W 123°23'20125.1
2015-Apr-27 02:13N 46°05' W 122°56'2941.8
2015-Apr-27 01:32N 45°37' W 122°48'29437.3
2015-Apr-27 01:28N 46°05' W 122°56'20150.5
2015-Apr-27 01:20N 46°12' W 123°23'0 0.0
2015-Apr-27 00:29N 46°12' W 123°23'43876.9
2015-Apr-27 00:26N 45°37' W 122°48'29249.3
2015-Apr-27 00:19N 46°05' W 122°56'2929.1
2015-Apr-26 23:20N 45°37' W 122°48'43812.3
2015-Apr-26 23:17N 46°12' W 123°23'4353.8
2015-Apr-26 22:29N 45°37' W 122°48'291779.3
2015-Apr-26 22:28N 46°05' W 122°56'20109.1
2015-Apr-26 22:17N 46°12' W 123°23'2026.7
2015-Apr-26 21:31N 46°05' W 122°56'56361268144.4
2015-Apr-26 21:31S 32°46' W 071°32'560970854.4
2015-Apr-26 21:26N 45°37' W 122°48'43141.3
2015-Apr-26 21:08N 46°12' W 123°23'4371.8
2015-Apr-26 20:32N 45°37' W 122°48'436710.1
2015-Apr-26 20:31N 46°12' W 123°23'202155.5
2015-Apr-26 20:31N 46°05' W 122°56'2927.7
2015-Apr-26 19:29N 45°37' W 122°48'43767.8
2015-Apr-26 19:25N 46°12' W 123°23'20337.7
2015-Apr-26 19:22N 46°05' W 122°56'2934.4
2015-Apr-26 18:32N 45°37' W 122°48'436431.2
2015-Apr-26 18:31N 46°12' W 123°23'20186.5
2015-Apr-26 18:25N 46°05' W 122°56'2022.9
2015-Apr-26 17:31N 46°12' W 123°23'43458.0
2015-Apr-26 17:26N 45°37' W 122°48'2990.8
2015-Apr-26 17:07N 46°05' W 122°56'2949.2
2015-Apr-26 16:32N 45°37' W 122°48'43752.8
2015-Apr-26 16:29N 46°12' W 123°23'20340.9
2015-Apr-26 16:25N 46°05' W 122°56'2932.5
2015-Apr-26 15:32N 45°37' W 122°48'291664.5
2015-Apr-26 15:31N 46°05' W 122°56'20498.6
2015-Apr-26 15:28N 46°12' W 123°23'2021.2
2015-Apr-26 14:31N 46°05' W 122°56'20224.1
2015-Apr-26 14:25N 46°12' W 123°23'431002.3
2015-Apr-26 14:23N 45°37' W 122°48'0 0.0
2015-Apr-26 13:29N 45°37' W 122°48'436431.2
2015-Apr-26 13:28N 46°12' W 123°23'201980.7
2015-Apr-26 13:28N 46°05' W 122°56'2021.7
2015-Apr-26 12:32N 46°12' W 123°23'43453.9
2015-Apr-26 12:26N 45°37' W 122°48'291720.0
2015-Apr-26 12:25N 46°05' W 122°56'2932.5
2015-Apr-26 11:32N 45°37' W 122°48'435321.8
2015-Apr-26 11:31N 46°12' W 123°23'202155.5
2015-Apr-26 11:31N 46°05' W 122°56'2929.2
2015-Apr-26 10:32N 45°37' W 122°48'43742.0
2015-Apr-26 10:28N 46°12' W 123°23'202093.9
2015-Apr-26 10:28N 46°05' W 122°56'2930.8
2015-Apr-26 09:32N 45°37' W 122°48'435512.5
2015-Apr-26 09:31N 46°12' W 123°23'20339.3
2015-Apr-26 09:28N 46°05' W 122°56'2930.8
2015-Apr-26 08:32N 45°37' W 122°48'291612.5
2015-Apr-26 08:31N 46°05' W 122°56'20505.4
2015-Apr-26 08:28N 46°12' W 123°23'0 0.0
2015-Apr-26 07:31N 46°12' W 123°23'201928.6
2015-Apr-26 07:31N 46°05' W 122°56'29218.2
2015-Apr-26 07:23N 45°37' W 122°48'4347.2
2015-Apr-26 06:28N 46°12' W 123°23'202035.7
2015-Apr-26 06:28N 46°05' W 122°56'29889.6
2015-Apr-26 06:26N 45°37' W 122°48'4347.2
2015-Apr-26 05:31N 46°12' W 123°23'43470.6
2015-Apr-26 05:26N 45°37' W 122°48'29424.8
2015-Apr-26 05:22N 46°05' W 122°56'2934.4
2015-Apr-26 04:32N 45°37' W 122°48'435512.5
2015-Apr-26 04:31N 46°12' W 123°23'20337.7
2015-Apr-26 04:28N 46°05' W 122°56'2020.5
2015-Apr-26 03:28N 46°12' W 123°23'202364.1
2015-Apr-26 03:28N 46°05' W 122°56'29216.8
2015-Apr-26 03:20N 45°37' W 122°48'0 0.0
2015-Apr-26 02:32N 45°37' W 122°48'291540.3
2015-Apr-26 02:31N 46°05' W 122°56'20505.4
2015-Apr-26 02:28N 46°12' W 123°23'4345.6
2015-Apr-26 01:32N 45°37' W 122°48'435716.6
2015-Apr-26 01:32N 46°12' W 123°23'201832.3
2015-Apr-26 01:31N 46°05' W 122°56'2020.6
2015-Apr-26 00:31N 46°12' W 123°23'202155.5
2015-Apr-26 00:31N 46°05' W 122°56'29357.1
2015-Apr-26 00:26N 45°37' W 122°48'4344.7
2015-Apr-25 23:28N 46°12' W 123°23'202220.8
2015-Apr-25 23:28N 46°05' W 122°56'29124.2
2015-Apr-25 23:14N 45°37' W 122°48'0 0.0
2015-Apr-25 22:32N 45°37' W 122°48'434287.0
2015-Apr-25 22:31N 46°12' W 123°23'20127.7
2015-Apr-25 22:22N 46°05' W 122°56'2934.5
2015-Apr-25 21:32N 45°37' W 122°48'29409.5
2015-Apr-25 21:28N 46°05' W 122°56'20224.8
2015-Apr-25 21:22N 46°12' W 123°23'4351.1
2015-Apr-25 20:32N 45°37' W 122°48'434287.0
2015-Apr-25 20:31N 46°12' W 123°23'2097.5
2015-Apr-25 20:19N 46°05' W 122°56'2934.5
2015-Apr-25 19:29N 45°37' W 122°48'434410.0
2015-Apr-25 19:28N 46°12' W 123°23'2078.5
2015-Apr-25 19:13N 46°05' W 122°56'2942.1
2015-Apr-25 18:32N 45°37' W 122°48'434061.8
2015-Apr-25 18:31N 46°12' W 123°23'20345.7
2015-Apr-25 18:28N 46°05' W 122°56'2930.8
2015-Apr-25 17:32N 45°37' W 122°48'434061.4
2015-Apr-25 17:31N 46°12' W 123°23'2065.7
2015-Apr-25 17:13N 46°05' W 122°56'2942.1
2015-Apr-25 16:32N 45°37' W 122°48'434539.2
2015-Apr-25 16:31N 46°12' W 123°23'201928.6
2015-Apr-25 16:31N 46°05' W 122°56'2019.6
2015-Apr-25 15:28N 46°12' W 123°23'431094.7
2015-Apr-25 15:26N 45°37' W 122°48'291474.6
2015-Apr-25 15:25N 46°05' W 122°56'2023.5
2015-Apr-25 14:33N 46°12' W 123°23'43671.1
2015-Apr-25 14:29N 45°37' W 122°48'291453.8
2015-Apr-25 14:28N 46°05' W 122°56'2022.2
2015-Apr-25 13:33N 46°12' W 123°23'433150.0
2015-Apr-25 13:32N 45°37' W 122°48'2989.8
2015-Apr-25 13:13N 46°05' W 122°56'2030.5
2015-Apr-25 12:33N 46°12' W 123°23'433283.7
2015-Apr-25 12:32N 45°37' W 122°48'291453.5
2015-Apr-25 12:31N 46°05' W 122°56'2929.2
2015-Apr-25 11:32N 45°37' W 122°48'291376.0
2015-Apr-25 11:31N 46°05' W 122°56'20309.2
2015-Apr-25 11:27N 46°12' W 123°23'0 0.0
2015-Apr-25 10:33N 46°12' W 123°23'20600.7
2015-Apr-25 10:31N 46°05' W 122°56'29363.4
2015-Apr-25 10:26N 45°37' W 122°48'0 0.0
2015-Apr-25 09:32N 45°37' W 122°48'431126.5
2015-Apr-25 09:30N 46°12' W 123°23'20600.7
2015-Apr-25 09:28N 46°05' W 122°56'2022.2
2015-Apr-25 08:33N 46°12' W 123°23'433674.6
2015-Apr-25 08:32N 45°37' W 122°48'291376.0
2015-Apr-25 08:31N 46°05' W 122°56'0 0.0
2015-Apr-25 07:31N 46°05' W 122°56'201308.7
2015-Apr-25 07:30N 46°12' W 123°23'433355.0
2015-Apr-25 07:29N 45°37' W 122°48'4345.8
2015-Apr-25 06:33N 46°12' W 123°23'433215.2
2015-Apr-25 06:32N 45°37' W 122°48'29401.6
2015-Apr-25 06:28N 46°05' W 122°56'2022.2
2015-Apr-25 05:33N 46°12' W 123°23'20242.7
2015-Apr-25 05:28N 46°05' W 122°56'29992.5
2015-Apr-25 05:26N 45°37' W 122°48'0 0.0
2015-Apr-25 04:32N 45°37' W 122°48'43230.0
2015-Apr-25 04:21N 46°12' W 123°23'20151.1
2015-Apr-25 04:13N 46°05' W 122°56'2030.5
2015-Apr-25 03:33N 46°12' W 123°23'433589.1
2015-Apr-25 03:32N 45°37' W 122°48'29237.8
2015-Apr-25 03:25N 46°05' W 122°56'2023.5
2015-Apr-25 02:33N 46°12' W 123°23'433674.6
2015-Apr-25 02:32N 45°37' W 122°48'291340.2
2015-Apr-25 02:31N 46°05' W 122°56'0 0.0
2015-Apr-25 01:28N 46°05' W 122°56'291053.3
2015-Apr-25 01:26N 45°37' W 122°48'43179.7
2015-Apr-25 01:12N 46°12' W 123°23'4360.3
2015-Apr-25 00:29N 45°37' W 122°48'29165.9
2015-Apr-25 00:19N 46°05' W 122°56'0 0.0
2015-Apr-24 23:31N 46°05' W 122°56'20174.1
2015-Apr-24 23:24N 46°12' W 123°23'434171.1
2015-Apr-24 23:23N 45°37' W 122°48'3034.9
2015-Apr-24 22:32N 46°06' W 122°57'19459.5
2015-Apr-24 22:30N 46°12' W 123°23'43707.9
2015-Apr-24 22:26N 45°37' W 122°48'0 0.0
2015-Apr-24 21:32N 45°37' W 122°48'35222.2
2015-Apr-24 21:23N 46°10' W 123°03'1477.5
2015-Apr-24 21:12N 46°12' W 123°23'1419.1
2015-Apr-24 20:28N 46°10' W 123°03'14201.8
2015-Apr-24 20:24N 46°12' W 123°23'433674.6
2015-Apr-24 20:23N 45°37' W 122°48'0 0.0
2015-Apr-24 19:32N 45°37' W 122°48'353292.1
2015-Apr-24 19:32N 46°10' W 123°03'1450.0
2015-Apr-24 19:15N 46°12' W 123°23'4360.3
2015-Apr-24 18:32N 45°37' W 122°48'43477.8
2015-Apr-24 18:27N 46°12' W 123°23'14661.2
2015-Apr-24 18:26N 46°10' W 123°03'1415.0
2015-Apr-24 17:30N 46°12' W 123°23'43711.2
2015-Apr-24 17:26N 45°37' W 122°48'351307.6
2015-Apr-24 17:25N 46°10' W 123°04'1 0.6
2015-Apr-24 16:33N 46°10' W 123°04'131982.1
2015-Apr-24 16:33N 46°12' W 123°23'434171.1
2015-Apr-24 16:32N 45°37' W 122°48'4343.3
2015-Apr-24 15:33N 46°12' W 123°23'1416751.1
2015-Apr-24 15:33N 46°10' W 123°03'353909.4
2015-Apr-24 15:32N 45°37' W 122°48'2928.2
2015-Apr-24 14:31N 46°05' W 122°56'20842.4
2015-Apr-24 14:30N 46°12' W 123°23'434539.7
2015-Apr-24 14:29N 45°37' W 122°48'4345.6
2015-Apr-24 13:33N 46°12' W 123°23'434061.8
2015-Apr-24 13:32N 45°37' W 122°48'29245.8
2015-Apr-24 13:25N 46°05' W 122°56'2023.3
2015-Apr-24 12:33N 46°12' W 123°23'20755.5
2015-Apr-24 12:31N 46°05' W 122°56'29156.6
2015-Apr-24 12:20N 45°37' W 122°48'4354.3
2015-Apr-24 11:33N 46°12' W 123°23'434287.0
2015-Apr-24 11:32N 45°37' W 122°48'291638.1
2015-Apr-24 11:31N 46°05' W 122°56'2020.9
2015-Apr-24 10:33N 46°12' W 123°23'435144.4
2015-Apr-24 10:32N 45°37' W 122°48'291691.8
2015-Apr-24 10:31N 46°05' W 122°56'2929.2
2015-Apr-24 09:32N 45°37' W 122°48'291691.8
2015-Apr-24 09:31N 46°05' W 122°56'20842.4
2015-Apr-24 09:30N 46°12' W 123°23'4344.8
2015-Apr-24 08:32N 45°37' W 122°48'29239.4
2015-Apr-24 08:25N 46°05' W 122°56'20278.7
2015-Apr-24 08:21N 46°12' W 123°23'2023.2
2015-Apr-24 07:28N 46°05' W 122°56'20872.4
2015-Apr-24 07:27N 46°12' W 123°23'434539.2
2015-Apr-24 07:26N 45°37' W 122°48'0 0.0
2015-Apr-24 06:32N 45°37' W 122°48'291638.4
2015-Apr-24 06:31N 46°05' W 122°56'20164.7
2015-Apr-24 06:24N 46°12' W 123°23'0 0.0
2015-Apr-24 05:33N 46°12' W 123°23'434824.0
2015-Apr-24 05:32N 45°37' W 122°48'291664.8
2015-Apr-24 05:31N 46°05' W 122°56'2020.9
2015-Apr-24 04:33N 46°12' W 123°23'434677.3
2015-Apr-24 04:32N 45°37' W 122°48'291664.8
2015-Apr-24 04:31N 46°05' W 122°56'2019.9
2015-Apr-24 03:30N 46°12' W 123°23'434979.0
2015-Apr-24 03:29N 45°37' W 122°48'2990.4
2015-Apr-24 03:10N 46°05' W 122°56'2945.4
2015-Apr-24 02:32N 45°37' W 122°48'43464.9
2015-Apr-24 02:27N 46°12' W 123°23'20161.4
2015-Apr-24 02:19N 46°05' W 122°56'2026.3
2015-Apr-24 01:33N 46°12' W 123°23'43398.8
2015-Apr-24 01:26N 45°37' W 122°48'29241.7
2015-Apr-24 01:19N 46°05' W 122°56'  

Dump ship's entire track history